createdAt,value
2018-08-13T00:01:38.677Z,1.10
2018-08-13T00:04:06.381Z,1.17
2018-08-13T00:06:34.097Z,1.53
2018-08-13T00:09:01.765Z,1.37
2018-08-13T00:11:29.477Z,1.27
2018-08-13T00:13:57.181Z,1.33
2018-08-13T00:16:24.873Z,1.33
2018-08-13T00:18:52.550Z,1.63
2018-08-13T00:21:20.246Z,1.20
2018-08-13T00:23:47.917Z,1.40
2018-08-13T00:26:15.608Z,1.33
2018-08-13T00:28:43.277Z,1.30
2018-08-13T00:31:11.003Z,1.30
2018-08-13T00:33:38.677Z,1.17
2018-08-13T00:36:06.497Z,1.20
2018-08-13T00:38:34.154Z,1.20
2018-08-13T00:41:01.853Z,1.30
2018-08-13T00:43:29.529Z,1.60
2018-08-13T00:45:57.245Z,1.40
2018-08-13T00:48:24.950Z,1.60
2018-08-13T00:50:56.089Z,1.53
2018-08-13T00:53:23.809Z,1.70
2018-08-13T00:55:51.498Z,1.43
2018-08-13T00:58:19.177Z,1.60
2018-08-13T01:00:46.837Z,1.47
2018-08-13T01:03:14.546Z,1.40
2018-08-13T01:05:42.254Z,1.70
2018-08-13T01:08:09.953Z,1.30
2018-08-13T01:10:37.660Z,1.30
2018-08-13T01:13:06.369Z,1.57
2018-08-13T01:15:34.077Z,1.90
2018-08-13T01:18:08.480Z,1.10
2018-08-13T01:20:36.161Z,1.10
2018-08-13T01:23:03.871Z,1.67
2018-08-13T01:25:31.577Z,1.37
2018-08-13T01:27:59.357Z,1.80
2018-08-13T01:30:27.094Z,1.20
2018-08-13T01:32:54.741Z,1.80
2018-08-13T01:35:22.404Z,1.20
2018-08-13T01:37:50.060Z,1.57
2018-08-13T01:40:17.729Z,2.00
2018-08-13T01:42:45.394Z,1.50
2018-08-13T01:45:13.364Z,1.50
2018-08-13T01:47:41.721Z,1.50
2018-08-13T01:50:11.104Z,1.67
2018-08-13T01:52:38.936Z,1.40
2018-08-13T01:55:08.305Z,1.80
2018-08-13T01:57:36.013Z,1.80
2018-08-13T02:00:08.631Z,1.60
2018-08-13T02:02:36.317Z,1.60
2018-08-13T02:05:05.012Z,1.40
2018-08-13T02:07:36.225Z,1.60
2018-08-13T02:10:05.409Z,1.30
2018-08-13T02:12:33.421Z,1.50
2018-08-13T02:15:01.109Z,1.47
2018-08-13T02:17:28.788Z,1.67
2018-08-13T02:19:56.473Z,1.57
2018-08-13T02:22:24.151Z,1.43
2018-08-13T02:24:52.023Z,1.80
2018-08-13T02:27:19.677Z,1.67
2018-08-13T02:29:47.333Z,1.30
2018-08-13T02:32:15.013Z,1.30
2018-08-13T02:34:42.670Z,1.20
2018-08-13T02:37:10.373Z,1.20
2018-08-13T02:39:38.098Z,1.50
2018-08-13T02:42:05.774Z,1.63
2018-08-13T02:44:33.683Z,1.30
2018-08-13T02:47:01.673Z,1.27
2018-08-13T02:49:29.455Z,1.40
2018-08-13T02:51:57.203Z,1.37
2018-08-13T02:54:25.236Z,1.30
2018-08-13T02:56:53.002Z,1.43
2018-08-13T02:59:20.720Z,1.33
2018-08-13T03:01:48.486Z,1.37
2018-08-13T03:04:16.318Z,1.17
2018-08-13T03:06:44.093Z,1.57
2018-08-13T03:09:12.565Z,1.33
2018-08-13T03:11:40.311Z,1.60
2018-08-13T03:14:08.093Z,1.40
2018-08-13T03:16:35.824Z,1.23
2018-08-13T03:19:04.357Z,1.40
2018-08-13T03:21:32.090Z,1.10
2018-08-13T03:23:59.943Z,1.30
2018-08-13T03:26:27.775Z,1.30
2018-08-13T03:28:55.508Z,1.30
2018-08-13T03:31:23.285Z,1.40
2018-08-13T03:33:50.958Z,1.33
2018-08-13T03:36:18.646Z,1.33
2018-08-13T03:38:46.386Z,1.40
2018-08-13T03:41:14.116Z,1.30
2018-08-13T03:43:41.894Z,1.37
2018-08-13T03:46:09.625Z,1.20
2018-08-13T03:48:37.337Z,1.50
2018-08-13T03:51:05.248Z,1.10
2018-08-13T03:53:33.042Z,1.30
2018-08-13T03:56:01.155Z,1.13
2018-08-13T03:58:28.961Z,1.70
2018-08-13T04:00:56.743Z,1.40
2018-08-13T04:03:24.479Z,1.43
2018-08-13T04:05:52.264Z,1.37
2018-08-13T04:08:20.154Z,1.60
2018-08-13T04:10:47.887Z,1.27
2018-08-13T04:13:15.642Z,1.60
2018-08-13T04:15:43.791Z,1.77
2018-08-13T04:18:11.521Z,1.40
2018-08-13T04:20:41.524Z,1.47
2018-08-13T04:23:09.440Z,1.63
2018-08-13T04:25:37.130Z,1.70
2018-08-13T04:28:05.704Z,1.70
2018-08-13T04:30:34.102Z,1.53
2018-08-13T04:33:01.831Z,1.63
2018-08-13T04:35:29.645Z,1.60
2018-08-13T04:37:57.366Z,1.73
2018-08-13T04:40:25.198Z,1.90
2018-08-13T04:42:52.986Z,1.80
2018-08-13T04:45:20.717Z,1.60
2018-08-13T04:47:51.441Z,1.50
2018-08-13T04:50:19.314Z,1.60
2018-08-13T04:52:47.511Z,1.60
2018-08-13T04:55:15.451Z,1.50
2018-08-13T04:57:43.290Z,1.67
2018-08-13T05:00:11.110Z,1.80
2018-08-13T05:02:39.494Z,1.67
2018-08-13T05:05:08.554Z,1.77
2018-08-13T05:07:36.530Z,1.50
2018-08-13T05:10:05.586Z,1.60
2018-08-13T05:12:33.348Z,1.50
2018-08-13T05:15:01.115Z,1.67
2018-08-13T05:17:28.834Z,1.60
2018-08-13T05:19:56.642Z,1.60
2018-08-13T05:22:24.450Z,1.50
2018-08-13T05:24:52.246Z,1.47
2018-08-13T05:27:20.040Z,1.83
2018-08-13T05:29:47.801Z,2.17
2018-08-13T05:32:15.499Z,1.90
2018-08-13T05:34:43.314Z,2.00
2018-08-13T05:37:11.101Z,1.70
2018-08-13T05:39:38.836Z,1.90
2018-08-13T05:42:06.570Z,1.80
2018-08-13T05:44:34.643Z,2.00
2018-08-13T05:47:02.495Z,2.00
2018-08-13T05:49:30.227Z,2.20
2018-08-13T05:51:57.981Z,2.03
2018-08-13T05:54:26.516Z,1.40
2018-08-13T05:56:54.201Z,2.00
2018-08-13T05:59:21.939Z,2.00
2018-08-13T06:01:49.624Z,2.30
2018-08-13T06:04:17.386Z,1.97
2018-08-13T06:06:45.438Z,1.57
2018-08-13T06:09:13.176Z,1.93
2018-08-13T06:11:41.022Z,2.10
2018-08-13T06:14:08.718Z,2.20
2018-08-13T06:16:36.945Z,1.93
2018-08-13T06:19:05.389Z,2.10
2018-08-13T06:21:33.103Z,1.70
2018-08-13T06:24:00.900Z,1.80
2018-08-13T06:26:28.619Z,2.00
2018-08-13T06:28:56.308Z,1.80
2018-08-13T06:31:24.051Z,2.10
2018-08-13T06:33:51.859Z,2.30
2018-08-13T06:36:19.605Z,2.20
2018-08-13T06:38:47.382Z,2.07
2018-08-13T06:41:19.032Z,2.07
2018-08-13T06:43:47.135Z,2.23
2018-08-13T06:46:14.822Z,2.00
2018-08-13T06:48:42.508Z,2.23
2018-08-13T06:51:10.245Z,2.10
2018-08-13T06:53:39.081Z,2.30
2018-08-13T06:56:07.258Z,2.20
2018-08-13T06:58:35.017Z,1.97
2018-08-13T07:01:03.006Z,3.13
2018-08-13T07:03:30.997Z,2.50
2018-08-13T07:05:58.724Z,2.50
2018-08-13T07:08:26.474Z,2.83
2018-08-13T07:10:54.191Z,2.40
2018-08-13T07:13:21.942Z,2.40
2018-08-13T07:15:49.673Z,2.03
2018-08-13T07:18:17.414Z,2.80
2018-08-13T07:20:45.159Z,2.83
2018-08-13T07:23:12.907Z,2.50
2018-08-13T07:25:40.700Z,2.50
2018-08-13T07:28:08.409Z,2.47
2018-08-13T07:30:36.374Z,2.10
2018-08-13T07:33:04.214Z,2.73
2018-08-13T07:35:31.980Z,2.00
2018-08-13T07:37:59.793Z,2.40
2018-08-13T07:40:27.592Z,2.60
2018-08-13T07:42:55.347Z,2.70
2018-08-13T07:45:23.035Z,2.00
2018-08-13T07:47:50.790Z,2.43
2018-08-13T07:50:18.520Z,2.60
2018-08-13T07:52:46.217Z,2.63
2018-08-13T07:55:13.998Z,2.47
2018-08-13T07:57:41.738Z,2.20
2018-08-13T08:00:12.995Z,2.70
2018-08-13T08:02:40.690Z,2.30
2018-08-13T08:05:08.048Z,2.73
2018-08-13T08:07:35.992Z,2.83
2018-08-13T08:10:07.076Z,3.03
2018-08-13T08:12:34.881Z,2.90
2018-08-13T08:15:02.950Z,2.73
2018-08-13T08:17:30.661Z,3.27
2018-08-13T08:19:58.378Z,3.47
2018-08-13T08:22:29.911Z,3.37
2018-08-13T08:24:57.659Z,3.30
2018-08-13T08:27:25.737Z,2.90
2018-08-13T08:29:53.570Z,3.73
2018-08-13T08:32:21.324Z,2.80
2018-08-13T08:34:49.117Z,2.93
2018-08-13T08:37:16.865Z,2.87
2018-08-13T08:39:44.566Z,2.70
2018-08-13T08:42:12.305Z,2.60
2018-08-13T08:44:39.985Z,2.40
2018-08-13T08:47:07.660Z,3.13
2018-08-13T08:49:35.345Z,2.67
2018-08-13T08:52:03.022Z,2.60
2018-08-13T08:54:30.692Z,2.33
2018-08-13T08:56:58.349Z,2.57
2018-08-13T08:59:26.042Z,2.63
2018-08-13T09:01:53.716Z,2.43
2018-08-13T09:04:21.383Z,2.10
2018-08-13T09:06:49.065Z,2.13
2018-08-13T09:09:16.717Z,2.37
2018-08-13T09:11:44.393Z,2.47
2018-08-13T09:14:12.299Z,2.47
2018-08-13T09:16:43.993Z,2.20
2018-08-13T09:19:29.051Z,2.30
2018-08-13T09:23:16.802Z,2.00
2018-08-13T09:25:55.619Z,2.00
2018-08-13T09:28:40.685Z,1.97
2018-08-13T09:31:31.220Z,2.00
2018-08-13T09:34:18.662Z,1.70
2018-08-13T09:36:46.433Z,2.40
2018-08-13T09:39:14.034Z,2.37
2018-08-13T09:41:41.728Z,1.93
2018-08-13T09:44:09.397Z,2.10
2018-08-13T09:46:37.642Z,1.97
2018-08-13T09:49:05.799Z,1.90
2018-08-13T09:51:34.199Z,2.13
2018-08-13T09:54:02.065Z,2.20
2018-08-13T09:56:29.820Z,2.00
2018-08-13T09:58:58.445Z,1.90
2018-08-13T10:01:26.125Z,2.50
2018-08-13T10:03:53.795Z,2.13
2018-08-13T10:06:21.497Z,1.53
2018-08-13T10:08:49.173Z,2.03
2018-08-13T10:11:16.837Z,2.20
2018-08-13T10:13:44.474Z,2.10
2018-08-13T10:16:13.330Z,2.00
2018-08-13T10:18:40.994Z,2.10
2018-08-13T10:21:08.654Z,1.70
2018-08-13T10:23:36.349Z,2.23
2018-08-13T10:26:04.070Z,2.10
2018-08-13T10:28:31.749Z,2.00
2018-08-13T10:30:59.426Z,1.80
2018-08-13T10:33:27.101Z,1.80
2018-08-13T10:35:54.761Z,2.00
2018-08-13T10:38:22.449Z,2.10
2018-08-13T10:40:50.089Z,1.67
2018-08-13T10:43:17.846Z,2.00
2018-08-13T10:45:45.485Z,2.00
2018-08-13T10:48:13.197Z,1.83
2018-08-13T10:50:40.890Z,1.83
2018-08-13T10:53:08.574Z,1.60
2018-08-13T10:55:36.313Z,1.77
2018-08-13T10:58:04.176Z,1.60
2018-08-13T11:00:31.829Z,1.60
2018-08-13T11:02:59.625Z,1.60
2018-08-13T11:05:27.266Z,1.57
2018-08-13T11:07:55.015Z,1.73
2018-08-13T11:10:22.788Z,1.90
2018-08-13T11:12:51.448Z,1.50
2018-08-13T11:15:19.594Z,1.60
2018-08-13T11:17:47.266Z,1.70
2018-08-13T11:20:15.485Z,1.60
2018-08-13T11:22:43.309Z,1.50
2018-08-13T11:25:13.196Z,1.70
2018-08-13T11:27:40.948Z,1.80
2018-08-13T11:30:12.232Z,2.00
2018-08-13T11:32:40.106Z,2.07
2018-08-13T11:35:07.867Z,2.10
2018-08-13T11:37:35.875Z,2.23
2018-08-13T11:40:08.277Z,1.80
2018-08-13T11:42:36.077Z,2.10
2018-08-13T11:45:03.776Z,2.40
2018-08-13T11:47:31.428Z,2.00
2018-08-13T11:49:59.165Z,1.97
2018-08-13T11:52:30.074Z,2.30
2018-08-13T11:54:57.685Z,1.90
2018-08-13T11:57:25.352Z,1.80
2018-08-13T11:59:53.026Z,2.10
2018-08-13T12:02:20.726Z,2.03
2018-08-13T12:04:48.376Z,2.13
2018-08-13T12:07:16.016Z,1.97
2018-08-13T12:09:43.659Z,1.70
2018-08-13T12:12:11.633Z,2.20
2018-08-13T12:14:39.515Z,2.00
2018-08-13T12:17:07.234Z,2.10
2018-08-13T12:19:35.056Z,1.67
2018-08-13T12:22:02.676Z,2.03
2018-08-13T12:24:30.346Z,2.07
2018-08-13T12:26:58.005Z,2.17
2018-08-13T12:29:25.660Z,1.83
2018-08-13T12:31:53.294Z,1.97
2018-08-13T12:34:21.087Z,1.80
2018-08-13T12:36:52.576Z,3.13
2018-08-13T12:39:20.254Z,3.00
2018-08-13T12:41:47.913Z,1.67
2018-08-13T12:44:15.573Z,1.40
2018-08-13T12:46:43.224Z,1.10
2018-08-13T12:49:10.874Z,1.10
2018-08-13T12:51:38.592Z,1.00
2018-08-13T12:54:06.425Z,0.90
2018-08-13T12:56:34.080Z,1.07
2018-08-13T12:59:01.901Z,1.13
2018-08-13T13:01:29.641Z,1.10
2018-08-13T13:03:57.358Z,0.93
2018-08-13T13:06:25.025Z,1.30
2018-08-13T13:08:52.740Z,1.27
2018-08-13T13:11:20.488Z,1.33
2018-08-13T13:13:48.176Z,1.40
2018-08-13T13:16:15.939Z,1.20
2018-08-13T13:18:43.605Z,1.20
2018-08-13T13:21:11.368Z,1.50
2018-08-13T13:23:39.054Z,1.77
2018-08-13T13:26:06.913Z,1.33
2018-08-13T13:28:38.605Z,1.63
2018-08-13T13:31:06.252Z,1.50
2018-08-13T13:33:34.043Z,1.40
2018-08-13T13:36:01.722Z,1.30
2018-08-13T13:38:29.400Z,1.47
2018-08-13T13:40:57.185Z,1.77
2018-08-13T13:43:24.864Z,1.70
2018-08-13T13:45:53.528Z,1.53
2018-08-13T13:48:21.712Z,1.53
2018-08-13T13:50:49.370Z,1.47
2018-08-13T13:53:17.133Z,1.73
2018-08-13T13:55:44.946Z,1.40
2018-08-13T13:58:12.709Z,1.50
2018-08-13T14:00:57.954Z,1.60
2018-08-13T14:03:25.694Z,1.53
2018-08-13T14:05:59.538Z,1.77
2018-08-13T14:08:27.274Z,1.57
2018-08-13T14:10:54.938Z,1.40
2018-08-13T14:13:22.697Z,1.50
2018-08-13T14:15:50.487Z,1.53
2018-08-13T14:18:18.250Z,1.70
2018-08-13T14:20:45.914Z,1.70
2018-08-13T14:23:13.694Z,1.60
2018-08-13T14:25:41.353Z,1.70
2018-08-13T14:28:09.079Z,1.70
2018-08-13T14:30:36.776Z,2.00
2018-08-13T14:33:05.165Z,1.50
2018-08-13T14:35:32.893Z,1.80
2018-08-13T14:38:00.746Z,1.67
2018-08-13T14:40:28.467Z,1.43
2018-08-13T14:42:56.130Z,2.03
2018-08-13T14:45:23.910Z,1.87
2018-08-13T14:47:52.002Z,2.50
2018-08-13T14:50:19.705Z,1.90
2018-08-13T14:52:51.204Z,1.90
2018-08-13T14:55:20.697Z,2.00
2018-08-13T14:57:48.345Z,1.90
2018-08-13T15:00:25.598Z,1.50
2018-08-13T15:02:54.284Z,1.67
2018-08-13T15:05:21.960Z,1.63
2018-08-13T15:07:49.796Z,1.67
2018-08-13T15:10:19.993Z,1.63
2018-08-13T15:12:47.720Z,1.40
2018-08-13T15:15:15.309Z,1.47
2018-08-13T15:17:42.965Z,1.50
2018-08-13T15:20:24.693Z,1.40
2018-08-13T15:22:52.645Z,1.40
2018-08-13T15:25:20.485Z,1.30
2018-08-13T15:27:48.279Z,1.20
2018-08-13T15:30:17.017Z,1.30
2018-08-13T15:32:45.756Z,1.47
2018-08-13T15:35:13.518Z,1.10
2018-08-13T15:37:41.547Z,1.40
2018-08-13T15:40:09.681Z,1.30
2018-08-13T15:42:37.664Z,1.20
2018-08-13T15:45:08.868Z,1.30
2018-08-13T15:47:36.654Z,1.30
2018-08-13T15:50:04.854Z,1.47
2018-08-13T15:52:32.662Z,1.30
2018-08-13T15:55:04.007Z,1.30
2018-08-13T15:57:31.670Z,1.80
2018-08-13T15:59:59.444Z,1.33
2018-08-13T16:02:27.174Z,1.67
2018-08-13T16:04:55.092Z,1.40
2018-08-13T16:07:22.786Z,1.30
2018-08-13T16:09:50.725Z,1.03
2018-08-13T16:12:18.436Z,1.30
2018-08-13T16:14:46.206Z,1.20
2018-08-13T16:17:14.085Z,1.30
2018-08-13T16:19:41.755Z,1.13
2018-08-13T16:22:09.393Z,1.30
2018-08-13T16:24:37.158Z,1.40
2018-08-13T16:27:04.837Z,1.10
2018-08-13T16:29:32.516Z,1.50
2018-08-13T16:32:00.392Z,1.40
2018-08-13T16:34:28.077Z,1.40
2018-08-13T16:36:55.857Z,1.07
2018-08-13T16:39:23.665Z,1.27
2018-08-13T16:41:51.356Z,1.50
2018-08-13T16:44:19.411Z,1.30
2018-08-13T16:46:47.162Z,1.37
2018-08-13T16:49:15.425Z,1.30
2018-08-13T16:51:43.090Z,1.20
2018-08-13T16:54:10.790Z,1.43
2018-08-13T16:56:38.594Z,1.47
2018-08-13T16:59:06.250Z,1.10
2018-08-13T17:01:33.893Z,1.07
2018-08-13T17:04:01.876Z,1.20
2018-08-13T17:06:29.615Z,1.23
2018-08-13T17:08:57.683Z,1.20
2018-08-13T17:11:30.006Z,1.47
2018-08-13T17:13:57.814Z,1.20
2018-08-13T17:16:25.458Z,1.10
2018-08-13T17:18:53.170Z,1.30
2018-08-13T17:21:20.861Z,1.07
2018-08-13T17:23:48.901Z,1.20
2018-08-13T17:26:20.635Z,1.20
2018-08-13T17:31:55.273Z,0.90
2018-08-13T17:34:23.267Z,1.23
2018-08-13T17:36:51.178Z,1.10
2018-08-13T17:39:18.937Z,1.27
2018-08-13T17:41:46.750Z,1.17
2018-08-13T17:44:14.538Z,1.20
2018-08-13T17:46:42.727Z,1.20
2018-08-13T17:49:10.542Z,1.20
2018-08-13T17:51:38.382Z,1.03
2018-08-13T17:54:06.538Z,1.47
2018-08-13T17:56:34.331Z,1.00
2018-08-13T17:59:02.493Z,1.13
2018-08-13T18:01:30.325Z,1.20
2018-08-13T18:03:58.070Z,1.30
2018-08-13T18:06:25.886Z,1.20
2018-08-13T18:08:53.666Z,1.20
2018-08-13T18:11:21.403Z,1.20
2018-08-13T18:13:49.122Z,1.10
2018-08-13T18:16:17.022Z,1.47
2018-08-13T18:18:44.755Z,1.00
2018-08-13T18:21:12.530Z,1.00
2018-08-13T18:23:40.367Z,1.23
2018-08-13T18:26:08.502Z,1.20
2018-08-13T18:28:39.712Z,1.30
2018-08-13T18:31:08.145Z,1.20
2018-08-13T18:33:36.194Z,1.17
2018-08-13T18:36:04.110Z,1.33
2018-08-13T18:38:31.934Z,1.10
2018-08-13T18:40:59.894Z,1.47
2018-08-13T18:43:27.802Z,1.40
2018-08-13T18:45:55.530Z,1.43
2018-08-13T18:48:23.330Z,1.10
2018-08-13T18:50:51.098Z,1.33
2018-08-13T18:53:18.899Z,1.10
2018-08-13T18:55:46.638Z,1.20
2018-08-13T18:58:14.442Z,1.57
2018-08-13T19:00:44.728Z,1.30
2018-08-13T19:03:12.527Z,1.17
2018-08-13T19:05:40.223Z,1.27
2018-08-13T19:08:08.050Z,1.40
2018-08-13T19:10:35.819Z,1.20
2018-08-13T19:13:03.610Z,1.40
2018-08-13T19:15:31.302Z,1.33
2018-08-13T19:17:59.186Z,1.27
2018-08-13T19:20:33.126Z,1.40
2018-08-13T19:23:02.311Z,1.30
2018-08-13T19:25:30.455Z,1.40
2018-08-13T19:27:58.354Z,1.20
2018-08-13T19:30:26.414Z,1.50
2018-08-13T19:32:54.641Z,1.27
2018-08-13T19:35:22.351Z,1.53
2018-08-13T19:37:51.160Z,1.20
2018-08-13T19:40:22.619Z,1.50
2018-08-13T19:42:51.391Z,1.30
2018-08-13T19:45:19.883Z,1.40
2018-08-13T19:47:48.667Z,1.20
2018-08-13T19:50:16.646Z,1.17
2018-08-13T19:52:46.779Z,1.80
2018-08-13T19:55:14.856Z,1.20
2018-08-13T19:57:42.782Z,1.17
2018-08-13T20:00:17.393Z,1.57
2018-08-13T20:02:46.908Z,1.40
2018-08-13T20:05:14.746Z,1.40
2018-08-13T20:07:42.930Z,1.40
2018-08-13T20:10:12.447Z,1.40
2018-08-13T20:12:40.750Z,1.27
2018-08-13T20:15:08.998Z,1.43
2018-08-13T20:17:36.894Z,1.33
2018-08-13T20:20:09.256Z,1.30
2018-08-13T20:22:37.090Z,1.10
2018-08-13T20:25:05.691Z,1.40
2018-08-13T20:27:33.683Z,1.50
2018-08-13T20:30:01.627Z,1.37
2018-08-13T20:32:29.414Z,1.20
2018-08-13T20:34:57.364Z,1.27
2018-08-13T20:37:26.402Z,1.10
2018-08-13T20:39:54.196Z,1.20
2018-08-13T20:42:22.338Z,1.20
2018-08-13T20:44:51.442Z,0.90
2018-08-13T20:47:19.442Z,0.93
2018-08-13T20:49:47.378Z,1.00
2018-08-13T20:52:15.278Z,1.30
2018-08-13T20:54:45.024Z,1.03
2018-08-13T20:57:13.999Z,1.00
2018-08-13T20:59:43.227Z,0.97
2018-08-13T21:02:10.996Z,1.13
2018-08-13T21:04:39.771Z,1.10
2018-08-13T21:07:08.510Z,0.90
2018-08-13T21:09:43.137Z,0.97
2018-08-13T21:12:17.416Z,1.00
2018-08-13T21:14:54.168Z,0.90
2018-08-13T21:17:27.180Z,1.00
2018-08-13T21:20:00.471Z,0.90
2018-08-13T21:22:34.167Z,0.80
2018-08-13T21:25:13.720Z,0.80
2018-08-13T21:27:47.828Z,0.70
2018-08-13T21:30:33.599Z,0.90
2018-08-13T21:33:11.186Z,0.60
2018-08-13T21:35:57.933Z,0.80
2018-08-13T21:38:38.594Z,0.67
2018-08-13T21:41:32.676Z,0.70
2018-08-13T21:44:09.356Z,0.70
2018-08-13T21:46:43.780Z,0.73
2018-08-13T21:49:21.572Z,0.90
2018-08-13T21:51:58.558Z,0.83
2018-08-13T21:54:35.129Z,0.60
2018-08-13T21:57:09.750Z,0.67
2018-08-13T21:59:46.118Z,0.70
2018-08-13T22:02:30.270Z,0.90
2018-08-13T22:05:09.502Z,0.77
2018-08-13T22:07:45.258Z,0.70
2018-08-13T22:10:21.519Z,0.80
2018-08-13T22:12:58.057Z,0.90
2018-08-13T22:15:32.683Z,0.63
2018-08-13T22:18:15.193Z,0.80
2018-08-13T22:20:49.444Z,0.70
2018-08-13T22:23:22.758Z,0.80
2018-08-13T22:25:56.748Z,0.70
2018-08-13T22:28:30.556Z,0.70
2018-08-13T22:31:02.604Z,0.70
2018-08-13T22:33:41.650Z,0.60
2018-08-13T22:36:14.835Z,0.70
2018-08-13T22:38:47.011Z,0.60
2018-08-13T22:41:18.664Z,0.63
2018-08-13T22:43:53.805Z,0.60
2018-08-13T22:46:27.100Z,0.57
2018-08-13T22:49:11.249Z,0.97
2018-08-13T22:51:47.310Z,0.60
2018-08-13T22:54:22.139Z,0.60
2018-08-13T22:56:58.301Z,0.80
2018-08-13T22:59:45.523Z,0.80
2018-08-13T23:02:17.164Z,0.80
2018-08-13T23:04:51.498Z,0.70
2018-08-13T23:07:24.998Z,0.80
2018-08-13T23:09:57.678Z,0.90
2018-08-13T23:12:28.720Z,0.70
2018-08-13T23:15:03.659Z,0.80
2018-08-13T23:17:35.720Z,0.87
2018-08-13T23:20:13.623Z,0.70
2018-08-13T23:23:08.378Z,0.80
2018-08-13T23:25:39.795Z,0.67
2018-08-13T23:28:15.935Z,0.70
2018-08-13T23:30:51.404Z,0.90
2018-08-13T23:33:27.731Z,0.80
2018-08-13T23:35:59.796Z,0.90
2018-08-13T23:38:41.375Z,0.90
2018-08-13T23:41:14.313Z,0.80
2018-08-13T23:43:47.507Z,0.80
2018-08-13T23:46:21.662Z,0.80
2018-08-13T23:48:49.523Z,1.07
2018-08-13T23:51:17.258Z,0.90
2018-08-13T23:53:44.970Z,0.80
2018-08-13T23:56:12.801Z,0.80
2018-08-13T23:58:40.498Z,0.90
